Time;durP1;ratioP1;P1;durP2;ratioP2;P2;SDS_P1;SDS_P2;PMS_P1;PMS_P2;Temp;Humidity;BMP_temperature;BMP_pressure;BME280_temperature;BME280_humidity;BME280_pressure;Samples;Min_cycle;Max_cycle;Signal;HPM_P1;HPM_P2
2021/08/08 00:02:31;;;;;;;;;;;14.10;99.90;;;;;;8359561;28;19904;-62
2021/08/08 00:06:31;;;;;;;;;;;14.20;99.90;;;;;;8359716;28;19940;-61
2021/08/08 00:10:32;;;;;;;;;;;14.20;99.90;;;;;;8359190;28;19934;-61
2021/08/08 00:14:32;;;;;;;;;;;14.30;99.90;;;;;;8359517;28;20054;-61
2021/08/08 00:18:33;;;;;;;;;;;14.40;99.90;;;;;;8359376;28;19996;-61
2021/08/08 00:22:33;;;;;;;;;;;14.40;99.90;;;;;;8358885;28;19905;-61
2021/08/08 00:26:34;;;;;;;;;;;14.50;99.90;;;;;;8347667;28;20331;-61
2021/08/08 00:30:34;;;;;;;;;;;14.60;99.90;;;;;;8325748;28;19905;-61
2021/08/08 00:34:35;;;;;;;;;;;14.60;99.90;;;;;;8325937;28;20332;-61
2021/08/08 00:38:35;;;;;;;;;;;14.60;99.90;;;;;;8325568;28;19905;-61
2021/08/08 00:42:36;;;;;;;;;;;14.60;99.90;;;;;;8325551;28;19932;-61
2021/08/08 00:46:36;;;;;;;;;;;14.50;99.90;;;;;;8308032;28;19996;-61
2021/08/08 00:50:37;;;;;;;;;;;14.40;99.90;;;;;;8330964;28;19912;-61
2021/08/08 00:54:37;;;;;;;;;;;14.30;99.90;;;;;;8358309;28;19904;-61
2021/08/08 01:02:43;;;;;;;;;;;14.20;99.90;;;;;;8343888;22;20490;-65
2021/08/08 01:06:48;;;;;;;;;;;14.00;99.90;;;;;;8325521;28;20515;-64
2021/08/08 01:10:49;;;;;;;;;;;13.80;99.90;;;;;;8325498;28;19912;-64
2021/08/08 01:14:50;;;;;;;;;;;13.80;99.90;;;;;;8325616;28;20520;-64
2021/08/08 01:18:51;;;;;;;;;;;13.70;99.90;;;;;;8325351;28;19905;-64
2021/08/08 01:22:53;;;;;;;;;;;13.80;99.90;;;;;;8325980;28;19909;-64
2021/08/08 01:26:53;;;;;;;;;;;13.80;99.90;;;;;;8325383;28;20098;-64
2021/08/08 01:30:54;;;;;;;;;;;13.50;99.90;;;;;;8325165;28;19987;-64
2021/08/08 01:34:54;;;;;;;;;;;13.30;99.90;;;;;;8325114;28;19905;-64
2021/08/08 01:39:03;;;;;;;;;;;13.30;99.90;;;;;;8324853;28;19905;-64
2021/08/08 01:43:06;;;;;;;;;;;13.30;99.90;;;;;;8325116;28;19939;-64
2021/08/08 01:47:07;;;;;;;;;;;13.30;99.90;;;;;;8324943;28;20354;-64
2021/08/08 01:51:08;;;;;;;;;;;13.30;99.90;;;;;;8324711;28;19913;-64
2021/08/08 01:55:09;;;;;;;;;;;13.60;99.90;;;;;;8325050;28;19920;-64
2021/08/08 01:59:10;;;;;;;;;;;13.60;99.90;;;;;;8324133;28;19905;-64
2021/08/08 02:03:10;;;;;;;;;;;13.80;99.90;;;;;;8307219;28;19998;-64
2021/08/08 02:07:15;;;;;;;;;;;13.90;99.90;;;;;;8326849;28;20016;-64
2021/08/08 02:11:15;;;;;;;;;;;13.90;99.90;;;;;;8330107;28;19905;-64
2021/08/08 02:15:15;;;;;;;;;;;13.90;99.90;;;;;;8330442;28;19951;-64
2021/08/08 02:19:16;;;;;;;;;;;13.80;99.90;;;;;;8329929;28;19940;-64
2021/08/08 02:23:16;;;;;;;;;;;13.90;99.90;;;;;;8330188;28;19996;-64
2021/08/08 02:27:17;;;;;;;;;;;13.90;99.90;;;;;;8329151;28;19905;-64
2021/08/08 02:31:18;;;;;;;;;;;14.10;99.90;;;;;;8329673;28;20394;-64
2021/08/08 02:35:18;;;;;;;;;;;14.30;99.90;;;;;;8329677;28;20383;-64
2021/08/08 02:43:29;;;;;;;;;;;14.30;99.90;;;;;;8502087;22;19924;-70
2021/08/08 02:47:30;;;;;;;;;;;14.30;99.90;;;;;;8362326;28;19950;-69
2021/08/08 02:51:30;;;;;;;;;;;14.30;99.90;;;;;;8347788;28;19940;-69
2021/08/08 02:55:31;;;;;;;;;;;14.30;99.90;;;;;;8344068;22;19928;-63
2021/08/08 02:59:33;;;;;;;;;;;14.30;99.90;;;;;;8327169;28;19905;-64
2021/08/08 03:03:34;;;;;;;;;;;14.20;99.90;;;;;;8329057;28;20293;-64
2021/08/08 03:07:34;;;;;;;;;;;14.10;99.90;;;;;;8328787;28;19905;-64
2021/08/08 03:11:35;;;;;;;;;;;14.00;99.90;;;;;;8329039;28;20290;-63
2021/08/08 03:15:35;;;;;;;;;;;14.10;99.90;;;;;;8328813;28;19912;-64
2021/08/08 03:19:35;;;;;;;;;;;14.10;99.90;;;;;;8327404;28;20059;-64
2021/08/08 03:23:36;;;;;;;;;;;13.90;99.90;;;;;;8328763;28;19935;-63
2021/08/08 03:27:36;;;;;;;;;;;13.90;99.90;;;;;;8328617;28;19905;-64
2021/08/08 03:31:37;;;;;;;;;;;13.80;99.90;;;;;;8328974;28;19909;-63
2021/08/08 03:35:37;;;;;;;;;;;13.90;99.90;;;;;;8327427;28;19962;-64
2021/08/08 03:39:38;;;;;;;;;;;13.80;99.90;;;;;;8328214;28;20333;-63
2021/08/08 03:43:38;;;;;;;;;;;13.70;99.90;;;;;;8328547;28;20007;-63
2021/08/08 03:47:39;;;;;;;;;;;13.60;99.90;;;;;;8327899;28;19912;-63
2021/08/08 03:51:39;;;;;;;;;;;13.50;99.90;;;;;;8328209;28;19905;-64
2021/08/08 03:55:40;;;;;;;;;;;13.40;99.90;;;;;;8327700;28;19975;-64
2021/08/08 03:59:40;;;;;;;;;;;13.30;99.90;;;;;;8327457;28;19912;-64
2021/08/08 04:03:41;;;;;;;;;;;13.30;99.90;;;;;;8327640;28;19912;-64
2021/08/08 04:07:41;;;;;;;;;;;13.30;99.90;;;;;;8327147;28;19912;-64
2021/08/08 04:11:42;;;;;;;;;;;13.30;99.90;;;;;;8327501;28;19905;-64
2021/08/08 04:15:42;;;;;;;;;;;13.40;99.90;;;;;;8327306;28;19916;-64
2021/08/08 04:19:43;;;;;;;;;;;13.50;99.90;;;;;;8327014;28;19944;-63
2021/08/08 04:23:43;;;;;;;;;;;13.60;99.90;;;;;;8327091;28;20015;-64
2021/08/08 04:27:44;;;;;;;;;;;13.70;99.90;;;;;;8326807;28;19905;-64
2021/08/08 04:31:44;;;;;;;;;;;13.80;99.90;;;;;;8326652;28;19912;-64
2021/08/08 04:35:45;;;;;;;;;;;13.80;99.90;;;;;;8326737;28;20366;-64
2021/08/08 04:39:47;;;;;;;;;;;14.10;99.90;;;;;;8326449;28;19905;-64
2021/08/08 04:43:47;;;;;;;;;;;14.10;99.90;;;;;;8326785;28;19924;-64
2021/08/08 04:47:52;;;;;;;;;;;14.10;99.90;;;;;;8326526;28;20390;-64
2021/08/08 04:51:52;;;;;;;;;;;14.00;99.90;;;;;;8327224;28;19905;-64
2021/08/08 04:55:53;;;;;;;;;;;13.90;99.90;;;;;;8326292;28;19920;-64
2021/08/08 04:59:54;;;;;;;;;;;14.10;99.90;;;;;;8325866;28;19909;-64
2021/08/08 05:03:55;;;;;;;;;;;14.20;99.90;;;;;;8324596;28;20062;-64
2021/08/08 05:07:55;;;;;;;;;;;14.20;99.90;;;;;;8325272;28;20354;-64
2021/08/08 05:11:56;;;;;;;;;;;14.40;99.90;;;;;;8325585;28;19912;-64
2021/08/08 05:15:57;;;;;;;;;;;14.60;99.90;;;;;;8324929;28;19967;-64
2021/08/08 05:19:57;;;;;;;;;;;14.70;99.90;;;;;;8325715;28;20325;-64
2021/08/08 05:23:57;;;;;;;;;;;14.80;99.90;;;;;;8325826;28;20267;-64
2021/08/08 05:27:58;;;;;;;;;;;15.00;99.90;;;;;;8325430;28;19916;-64
2021/08/08 05:31:59;;;;;;;;;;;15.00;99.90;;;;;;8324201;28;19905;-64
2021/08/08 05:35:59;;;;;;;;;;;15.00;99.90;;;;;;8325536;28;19959;-64
2021/08/08 05:40:05;;;;;;;;;;;15.00;99.90;;;;;;8325368;28;20318;-63
2021/08/08 05:44:06;;;;;;;;;;;15.20;99.90;;;;;;8330794;28;19917;-64
2021/08/08 05:48:06;;;;;;;;;;;15.40;99.90;;;;;;8327597;28;20400;-64
2021/08/08 05:52:07;;;;;;;;;;;15.50;99.90;;;;;;8330995;28;19928;-64
2021/08/08 05:56:08;;;;;;;;;;;15.60;99.90;;;;;;8331061;28;19917;-64
2021/08/08 06:00:09;;;;;;;;;;;15.60;99.90;;;;;;8330941;28;19909;-64
2021/08/08 06:04:09;;;;;;;;;;;15.60;99.90;;;;;;8331041;28;19909;-64
2021/08/08 06:08:10;;;;;;;;;;;15.80;99.90;;;;;;8330729;28;19911;-64
2021/08/08 06:12:11;;;;;;;;;;;15.80;99.90;;;;;;8331048;28;19959;-64
2021/08/08 06:16:11;;;;;;;;;;;16.00;99.90;;;;;;8330681;28;19911;-64
2021/08/08 06:20:12;;;;;;;;;;;16.20;99.90;;;;;;8330288;28;19987;-64
2021/08/08 06:24:12;;;;;;;;;;;16.40;99.90;;;;;;8330805;28;20366;-64
2021/08/08 06:28:14;;;;;;;;;;;16.40;99.90;;;;;;8329050;28;20412;-64
2021/08/08 06:32:15;;;;;;;;;;;16.50;99.90;;;;;;8330553;28;19905;-64
2021/08/08 06:36:15;;;;;;;;;;;16.50;99.90;;;;;;8330135;28;19912;-64
2021/08/08 06:40:16;;;;;;;;;;;16.60;99.90;;;;;;8329843;28;19905;-64
2021/08/08 06:44:16;;;;;;;;;;;16.70;99.90;;;;;;8330097;28;19909;-64
2021/08/08 06:48:16;;;;;;;;;;;16.80;99.90;;;;;;8330048;28;19905;-64
2021/08/08 06:52:17;;;;;;;;;;;16.80;99.90;;;;;;8329379;28;20047;-64
2021/08/08 06:56:17;;;;;;;;;;;16.80;99.90;;;;;;8328936;28;19917;-64
2021/08/08 07:00:18;;;;;;;;;;;16.70;99.90;;;;;;8329059;28;19909;-64
2021/08/08 07:04:18;;;;;;;;;;;17.00;99.90;;;;;;8327975;28;19916;-64
2021/08/08 07:08:19;;;;;;;;;;;17.10;99.90;;;;;;8328297;28;19905;-64
2021/08/08 07:12:19;;;;;;;;;;;17.40;99.90;;;;;;8327951;28;19959;-64
2021/08/08 07:16:20;;;;;;;;;;;18.20;99.90;;;;;;8326549;28;19909;-64
2021/08/08 07:20:20;;;;;;;;;;;18.70;99.90;;;;;;8325228;28;20086;-64
2021/08/08 07:24:21;;;;;;;;;;;18.80;99.90;;;;;;8325212;28;20374;-64
2021/08/08 07:28:21;;;;;;;;;;;18.80;99.90;;;;;;8327056;28;20413;-64
2021/08/08 07:32:22;;;;;;;;;;;18.80;99.90;;;;;;8327823;28;19905;-64
2021/08/08 07:36:22;;;;;;;;;;;18.60;99.90;;;;;;8326952;28;19996;-64
2021/08/08 07:40:23;;;;;;;;;;;18.30;99.90;;;;;;8325656;28;19905;-71
2021/08/08 07:44:23;;;;;;;;;;;18.00;99.90;;;;;;8327068;28;20322;-70
2021/08/08 07:48:24;;;;;;;;;;;18.20;99.90;;;;;;8325930;28;19909;-71
2021/08/08 07:52:24;;;;;;;;;;;18.40;99.90;;;;;;8325681;28;19940;-71
2021/08/08 07:56:24;;;;;;;;;;;18.40;99.90;;;;;;8324346;28;19921;-72
2021/08/08 08:00:25;;;;;;;;;;;18.40;99.90;;;;;;8325276;28;19908;-71
2021/08/08 08:04:25;;;;;;;;;;;18.40;99.90;;;;;;8324017;28;19941;-72
2021/08/08 08:08:26;;;;;;;;;;;18.60;99.90;;;;;;8324588;28;20355;-72
2021/08/08 08:12:26;;;;;;;;;;;19.10;99.90;;;;;;8325709;28;20637;-71
2021/08/08 08:16:28;;;;;;;;;;;19.40;99.90;;;;;;8322917;28;20024;-71
2021/08/08 08:20:28;;;;;;;;;;;19.40;99.90;;;;;;8323493;28;19909;-70
2021/08/08 08:24:29;;;;;;;;;;;19.30;99.90;;;;;;8324790;28;19935;-71
2021/08/08 08:28:29;;;;;;;;;;;19.40;99.90;;;;;;8323854;28;19909;-71
2021/08/08 08:32:30;;;;;;;;;;;19.80;99.90;;;;;;8323924;28;19945;-71
2021/08/08 08:36:30;;;;;;;;;;;19.90;99.90;;;;;;8324187;28;19979;-71
2021/08/08 08:40:34;;;;;;;;;;;19.90;99.90;;;;;;8323656;28;19924;-71
2021/08/08 08:44:35;;;;;;;;;;;19.80;99.90;;;;;;8324436;28;20279;-71
2021/08/08 08:48:36;;;;;;;;;;;20.30;99.90;;;;;;8324375;28;19912;-71
2021/08/08 08:52:37;;;;;;;;;;;20.30;99.90;;;;;;8322851;28;19909;-71
2021/08/08 08:56:37;;;;;;;;;;;20.00;99.90;;;;;;8373684;22;19921;-71
2021/08/08 09:00:39;;;;;;;;;;;19.90;99.90;;;;;;8333320;28;19909;-71
2021/08/08 09:04:40;;;;;;;;;;;19.80;99.90;;;;;;8324546;28;19962;-71
2021/08/08 09:08:41;;;;;;;;;;;19.80;99.90;;;;;;8324301;28;19909;-71
2021/08/08 09:12:42;;;;;;;;;;;19.70;99.90;;;;;;8324640;28;19909;-70
2021/08/08 09:16:44;;;;;;;;;;;19.50;99.90;;;;;;8327938;28;19913;-70
2021/08/08 09:20:45;;;;;;;;;;;19.50;99.90;;;;;;8328557;28;20520;-70
2021/08/08 09:24:46;;;;;;;;;;;19.50;99.90;;;;;;8329347;28;20024;-70
2021/08/08 09:28:46;;;;;;;;;;;19.30;99.90;;;;;;8328124;28;19916;-70
2021/08/08 09:32:47;;;;;;;;;;;19.50;99.90;;;;;;8328365;28;20428;-70
2021/08/08 09:36:48;;;;;;;;;;;19.70;99.90;;;;;;8330446;28;19952;-70
2021/08/08 09:40:56;;;;;;;;;;;19.80;99.90;;;;;;8328960;28;19913;-70
2021/08/08 09:45:00;;;;;;;;;;;20.10;99.90;;;;;;8328832;28;19917;-70
2021/08/08 09:49:08;;;;;;;;;;;20.20;99.90;;;;;;8336558;28;19980;-70
2021/08/08 09:53:09;;;;;;;;;;;20.10;99.90;;;;;;8302259;28;20352;-70
2021/08/08 09:57:10;;;;;;;;;;;20.00;99.90;;;;;;8319809;28;19912;-70
2021/08/08 10:01:10;;;;;;;;;;;20.20;99.90;;;;;;8330134;28;19905;-70
2021/08/08 10:05:11;;;;;;;;;;;20.30;99.90;;;;;;8329044;28;19917;-71
2021/08/08 10:09:11;;;;;;;;;;;20.40;99.90;;;;;;8330627;28;20011;-70
2021/08/08 10:13:24;;;;;;;;;;;20.60;99.90;;;;;;8329364;28;20306;-72
2021/08/08 10:17:26;;;;;;;;;;;20.70;99.90;;;;;;8326847;28;19916;-71
2021/08/08 10:21:27;;;;;;;;;;;21.00;99.90;;;;;;8326850;28;19913;-71
2021/08/08 10:25:28;;;;;;;;;;;21.30;99.90;;;;;;8327168;28;19917;-71
2021/08/08 10:29:28;;;;;;;;;;;21.50;99.90;;;;;;8328274;28;19905;-67
2021/08/08 10:33:29;;;;;;;;;;;21.70;99.90;;;;;;8319360;28;19916;-67
2021/08/08 10:37:29;;;;;;;;;;;22.00;99.90;;;;;;8313218;28;19909;-67
2021/08/08 10:41:30;;;;;;;;;;;21.50;99.90;;;;;;8321214;28;19939;-66
2021/08/08 10:45:32;;;;;;;;;;;20.90;99.90;;;;;;8318945;28;19925;-66
2021/08/08 10:49:33;;;;;;;;;;;20.70;99.90;;;;;;8318698;28;19913;-67
2021/08/08 10:53:34;;;;;;;;;;;20.90;99.90;;;;;;8318467;28;20035;-67
2021/08/08 10:57:44;;;;;;;;;;;21.20;99.90;;;;;;8319842;28;19959;-66
2021/08/08 11:01:45;;;;;;;;;;;21.20;99.90;;;;;;8318649;28;19915;-66
2021/08/08 11:05:46;;;;;;;;;;;21.60;99.90;;;;;;8318475;28;19970;-67
2021/08/08 11:09:46;;;;;;;;;;;21.90;99.90;;;;;;8321346;28;19913;-67
2021/08/08 11:13:47;;;;;;;;;;;22.60;99.90;;;;;;8317588;28;20382;-67
2021/08/08 11:17:47;;;;;;;;;;;22.30;99.90;;;;;;8319749;28;20362;-67
2021/08/08 11:21:48;;;;;;;;;;;22.10;99.90;;;;;;8322726;28;19955;-67
2021/08/08 11:25:48;;;;;;;;;;;21.60;99.90;;;;;;8326219;28;19916;-67
2021/08/08 11:29:51;;;;;;;;;;;21.00;99.90;;;;;;8324744;28;19908;-67
2021/08/08 11:33:58;;;;;;;;;;;20.80;99.90;;;;;;8325767;28;19920;-67
2021/08/08 11:37:59;;;;;;;;;;;21.10;99.90;;;;;;8324922;28;20382;-67
2021/08/08 11:42:03;;;;;;;;;;;21.10;99.90;;;;;;8323600;28;19944;-67
2021/08/08 11:46:04;;;;;;;;;;;20.70;99.90;;;;;;8325672;28;19919;-68
2021/08/08 11:50:06;;;;;;;;;;;20.80;99.90;;;;;;8324315;28;19909;-67
2021/08/08 11:54:07;;;;;;;;;;;20.50;99.90;;;;;;8324849;28;19916;-67
2021/08/08 11:58:08;;;;;;;;;;;20.60;99.90;;;;;;8322408;28;19996;-67
2021/08/08 12:02:16;;;;;;;;;;;20.90;99.90;;;;;;8487025;27;19931;-67
2021/08/08 12:06:23;;;;;;;;;;;21.00;99.90;;;;;;8483237;27;20270;-67
2021/08/08 12:10:37;;;;;;;;;;;21.50;99.90;;;;;;8463187;27;19923;-68
2021/08/08 12:14:38;;;;;;;;;;;22.10;99.90;;;;;;8465645;27;19919;-68
2021/08/08 12:18:39;;;;;;;;;;;22.40;99.90;;;;;;8464582;28;19931;-68
2021/08/08 12:22:40;;;;;;;;;;;21.90;99.90;;;;;;8468617;27;20002;-68
2021/08/08 12:26:48;;;;;;;;;;;21.60;99.90;;;;;;8475695;27;19919;-68
2021/08/08 12:30:49;;;;;;;;;;;20.90;99.90;;;;;;8472569;27;19955;-68
2021/08/08 12:34:50;;;;;;;;;;;20.70;99.90;;;;;;8470527;27;19908;-68
2021/08/08 12:38:51;;;;;;;;;;;20.80;99.90;;;;;;8468149;27;19999;-68
2021/08/08 12:43:00;;;;;;;;;;;21.00;99.90;;;;;;8453581;27;19912;-68
2021/08/08 12:47:01;;;;;;;;;;;21.10;99.90;;;;;;8467689;27;19919;-68
2021/08/08 12:51:02;;;;;;;;;;;21.50;99.90;;;;;;8475239;28;20288;-68
2021/08/08 12:55:02;;;;;;;;;;;21.80;99.90;;;;;;8452049;28;19919;-67
2021/08/08 12:59:03;;;;;;;;;;;21.80;99.90;;;;;;8452684;28;19923;-68
2021/08/08 13:03:03;;;;;;;;;;;21.80;99.90;;;;;;8452950;28;19908;-68
2021/08/08 13:07:04;;;;;;;;;;;20.90;99.90;;;;;;8452990;28;19957;-68
2021/08/08 13:11:04;;;;;;;;;;;20.50;99.90;;;;;;8443313;28;19919;-68
2021/08/08 13:15:09;;;;;;;;;;;20.20;99.90;;;;;;8430225;28;19908;-68
2021/08/08 13:19:09;;;;;;;;;;;20.00;99.90;;;;;;8428590;28;20306;-68
2021/08/08 13:23:11;;;;;;;;;;;19.90;99.90;;;;;;8430629;28;19908;-68
2021/08/08 13:27:12;;;;;;;;;;;19.90;99.90;;;;;;8429929;28;19908;-68
2021/08/08 13:31:12;;;;;;;;;;;20.00;99.90;;;;;;8429675;28;19943;-67
2021/08/08 13:35:13;;;;;;;;;;;19.80;99.90;;;;;;8429428;28;20006;-68
2021/08/08 13:39:14;;;;;;;;;;;19.60;99.90;;;;;;8427998;28;19963;-67
2021/08/08 13:43:15;;;;;;;;;;;19.40;99.90;;;;;;8428276;28;19916;-68
2021/08/08 13:47:15;;;;;;;;;;;19.00;99.90;;;;;;8426912;28;20384;-67
2021/08/08 13:51:16;;;;;;;;;;;19.10;99.90;;;;;;8427573;28;20488;-67
2021/08/08 13:55:19;;;;;;;;;;;19.20;99.90;;;;;;8429218;28;19908;-68
2021/08/08 13:59:19;;;;;;;;;;;19.30;99.90;;;;;;8429017;28;20412;-68
2021/08/08 14:03:20;;;;;;;;;;;19.40;99.90;;;;;;8429246;28;19909;-68
2021/08/08 14:07:20;;;;;;;;;;;19.70;99.90;;;;;;8429262;28;19908;-68
2021/08/08 14:11:21;;;;;;;;;;;19.80;99.90;;;;;;8428780;28;19908;-68
2021/08/08 14:15:21;;;;;;;;;;;19.50;99.90;;;;;;8428246;28;19912;-68
2021/08/08 14:19:22;;;;;;;;;;;19.30;99.90;;;;;;8428452;28;20348;-68
2021/08/08 14:23:23;;;;;;;;;;;20.30;99.90;;;;;;8427878;28;19923;-66
2021/08/08 14:27:24;;;;;;;;;;;22.40;99.90;;;;;;8430902;28;20274;-66
2021/08/08 14:31:24;;;;;;;;;;;22.20;99.90;;;;;;8428450;28;19908;-66
2021/08/08 14:35:25;;;;;;;;;;;21.80;99.90;;;;;;8428969;28;19908;-66
2021/08/08 14:39:26;;;;;;;;;;;22.00;99.90;;;;;;8427954;28;19912;-66
2021/08/08 14:43:26;;;;;;;;;;;21.20;99.90;;;;;;8464238;27;19916;-68
2021/08/08 14:47:27;;;;;;;;;;;21.60;99.90;;;;;;8458638;28;19995;-68
2021/08/08 14:51:29;;;;;;;;;;;21.30;99.90;;;;;;8447568;28;19908;-68
2021/08/08 14:55:29;;;;;;;;;;;20.70;99.90;;;;;;8426931;28;19920;-67
2021/08/08 14:59:30;;;;;;;;;;;20.70;99.90;;;;;;8458368;27;19968;-67
2021/08/08 15:03:30;;;;;;;;;;;20.40;99.90;;;;;;8457728;27;19912;-67
2021/08/08 15:07:31;;;;;;;;;;;20.20;99.90;;;;;;8437323;28;19908;-67
2021/08/08 15:11:31;;;;;;;;;;;20.20;99.90;;;;;;8431532;28;20429;-67
2021/08/08 15:15:32;;;;;;;;;;;20.60;99.90;;;;;;8425981;28;19927;-67
2021/08/08 15:19:32;;;;;;;;;;;20.80;99.90;;;;;;8435967;28;20016;-67
2021/08/08 15:23:33;;;;;;;;;;;20.70;99.90;;;;;;8433280;28;19918;-67
2021/08/08 15:27:33;;;;;;;;;;;20.40;99.90;;;;;;8445691;28;20321;-67
2021/08/08 15:31:34;;;;;;;;;;;20.20;99.90;;;;;;8456786;28;19912;-66
2021/08/08 15:35:34;;;;;;;;;;;19.90;99.90;;;;;;8457624;28;19908;-67
2021/08/08 15:39:36;;;;;;;;;;;19.70;99.90;;;;;;8458936;28;20018;-67
2021/08/08 15:43:36;;;;;;;;;;;19.60;99.90;;;;;;8459303;28;19915;-67
2021/08/08 15:47:39;;;;;;;;;;;19.70;99.90;;;;;;8459142;28;20007;-67
2021/08/08 15:51:39;;;;;;;;;;;20.10;99.90;;;;;;8444412;28;19908;-67
2021/08/08 15:55:40;;;;;;;;;;;20.10;99.90;;;;;;8425433;28;19995;-67
2021/08/08 15:59:40;;;;;;;;;;;20.40;99.90;;;;;;8436709;28;20002;-67
2021/08/08 16:03:41;;;;;;;;;;;19.90;99.90;;;;;;8454581;28;19985;-67
2021/08/08 16:07:41;;;;;;;;;;;20.00;99.90;;;;;;8445259;28;19912;-67
2021/08/08 16:11:42;;;;;;;;;;;21.10;99.90;;;;;;8450642;28;19981;-68
2021/08/08 16:15:42;;;;;;;;;;;24.00;99.90;;;;;;8448315;28;20012;-67
2021/08/08 16:19:43;;;;;;;;;;;27.40;99.90;;;;;;8427621;28;20404;-67
2021/08/08 16:23:43;;;;;;;;;;;27.40;99.90;;;;;;8448340;28;19916;-67
2021/08/08 16:27:44;;;;;;;;;;;23.50;99.90;;;;;;8444414;28;20010;-67
2021/08/08 16:31:45;;;;;;;;;;;23.90;99.90;;;;;;8433600;28;19915;-67
2021/08/08 16:35:45;;;;;;;;;;;25.20;99.90;;;;;;8424279;28;19920;-67
2021/08/08 16:39:46;;;;;;;;;;;27.00;99.90;;;;;;8425148;28;19916;-67
2021/08/08 16:43:46;;;;;;;;;;;27.00;99.90;;;;;;8436674;28;19965;-67
2021/08/08 16:47:47;;;;;;;;;;;26.60;99.90;;;;;;8431231;28;19912;-67
2021/08/08 16:51:47;;;;;;;;;;;27.90;98.20;;;;;;8428759;28;19908;-67
2021/08/08 16:55:48;;;;;;;;;;;28.00;95.70;;;;;;8428540;28;19916;-67
2021/08/08 16:59:50;;;;;;;;;;;28.30;94.90;;;;;;8430959;28;19920;-67
2021/08/08 17:03:51;;;;;;;;;;;27.50;95.30;;;;;;8431125;28;20349;-67
2021/08/08 17:07:51;;;;;;;;;;;28.40;94.00;;;;;;8430545;28;19953;-67
2021/08/08 17:11:52;;;;;;;;;;;27.60;93.60;;;;;;8430771;28;19912;-67
2021/08/08 17:15:52;;;;;;;;;;;27.10;94.30;;;;;;8430553;28;19916;-67
2021/08/08 17:19:53;;;;;;;;;;;27.10;94.10;;;;;;8429835;28;19916;-66
2021/08/08 17:23:53;;;;;;;;;;;26.90;94.20;;;;;;8430668;28;19908;-67
2021/08/08 17:27:54;;;;;;;;;;;26.70;94.80;;;;;;8429722;28;19916;-67
2021/08/08 17:31:54;;;;;;;;;;;24.40;98.60;;;;;;8429441;28;19908;-67
2021/08/08 17:35:54;;;;;;;;;;;22.70;99.90;;;;;;8439526;28;19908;-69
2021/08/08 17:39:55;;;;;;;;;;;20.90;99.90;;;;;;8450690;28;19934;-68
2021/08/08 17:43:55;;;;;;;;;;;19.70;99.90;;;;;;8442799;28;20284;-68
2021/08/08 17:47:56;;;;;;;;;;;19.00;99.90;;;;;;8462855;28;19931;-69
2021/08/08 17:51:56;;;;;;;;;;;18.70;99.90;;;;;;8444426;28;19908;-68
2021/08/08 17:55:57;;;;;;;;;;;18.40;99.90;;;;;;8428531;28;19919;-68
2021/08/08 17:59:57;;;;;;;;;;;18.20;99.90;;;;;;8427343;28;19969;-69
2021/08/08 18:03:58;;;;;;;;;;;18.00;99.90;;;;;;8428643;28;20281;-68
2021/08/08 18:07:58;;;;;;;;;;;17.90;99.90;;;;;;8440735;28;19915;-68
2021/08/08 18:11:59;;;;;;;;;;;17.80;99.90;;;;;;8457184;28;19911;-68
2021/08/08 18:15:59;;;;;;;;;;;17.60;99.90;;;;;;8440844;28;19977;-68
2021/08/08 18:20:00;;;;;;;;;;;17.50;99.90;;;;;;8441624;28;19920;-69
2021/08/08 18:24:00;;;;;;;;;;;17.30;99.90;;;;;;8429099;28;19916;-68
2021/08/08 18:28:03;;;;;;;;;;;17.20;99.90;;;;;;8430643;28;19944;-69
2021/08/08 18:32:05;;;;;;;;;;;17.10;99.90;;;;;;8431941;28;19966;-69
2021/08/08 18:36:05;;;;;;;;;;;16.90;99.90;;;;;;8438460;28;19908;-69
2021/08/08 18:40:06;;;;;;;;;;;16.80;99.90;;;;;;8439513;28;19916;-69
2021/08/08 18:44:07;;;;;;;;;;;16.60;99.90;;;;;;8440731;28;20420;-69
2021/08/08 18:48:08;;;;;;;;;;;16.50;99.90;;;;;;8439271;28;19908;-69
2021/08/08 18:52:09;;;;;;;;;;;16.50;99.90;;;;;;8443382;28;19935;-69
2021/08/08 18:56:10;;;;;;;;;;;16.40;99.90;;;;;;8446943;28;19916;-69
2021/08/08 19:00:10;;;;;;;;;;;16.20;99.90;;;;;;8439670;28;19968;-69
2021/08/08 19:04:11;;;;;;;;;;;16.00;99.90;;;;;;8439668;28;19907;-69
2021/08/08 19:08:12;;;;;;;;;;;15.90;99.90;;;;;;8437449;28;19919;-68
2021/08/08 19:12:12;;;;;;;;;;;15.90;99.90;;;;;;8439349;28;19923;-68
2021/08/08 19:16:14;;;;;;;;;;;15.60;99.90;;;;;;8437179;28;19916;-69
2021/08/08 19:20:19;;;;;;;;;;;15.50;99.90;;;;;;8442280;28;20791;-68
2021/08/08 19:24:19;;;;;;;;;;;15.10;99.90;;;;;;8430252;28;20032;-69
2021/08/08 19:28:21;;;;;;;;;;;15.10;99.90;;;;;;8436163;28;19912;-69
2021/08/08 19:32:22;;;;;;;;;;;15.10;99.90;;;;;;8438273;28;19920;-68
2021/08/08 19:36:22;;;;;;;;;;;15.20;99.90;;;;;;8437676;28;20281;-68
2021/08/08 19:40:23;;;;;;;;;;;15.00;99.90;;;;;;8428522;28;19973;-69
2021/08/08 19:44:23;;;;;;;;;;;14.70;99.90;;;;;;8435030;28;19927;-69
2021/08/08 19:48:24;;;;;;;;;;;14.50;99.90;;;;;;8448661;27;20400;-68
2021/08/08 19:52:26;;;;;;;;;;;14.70;99.90;;;;;;8434353;28;19951;-69
2021/08/08 19:56:29;;;;;;;;;;;14.40;99.90;;;;;;8436569;28;20405;-68
2021/08/08 20:00:29;;;;;;;;;;;14.20;99.90;;;;;;8443072;28;19932;-68
2021/08/08 20:04:30;;;;;;;;;;;14.50;99.90;;;;;;8425337;28;19923;-68
2021/08/08 20:08:30;;;;;;;;;;;14.10;99.90;;;;;;8432655;28;19919;-68
2021/08/08 20:12:31;;;;;;;;;;;13.90;99.90;;;;;;8437826;28;19964;-69
2021/08/08 20:16:31;;;;;;;;;;;13.70;99.90;;;;;;8441283;28;19923;-69
2021/08/08 20:20:32;;;;;;;;;;;13.90;99.90;;;;;;8436648;28;19927;-68
2021/08/08 20:24:33;;;;;;;;;;;13.70;99.90;;;;;;8443492;28;19912;-68
2021/08/08 20:28:33;;;;;;;;;;;13.70;99.90;;;;;;8429630;28;19916;-68
2021/08/08 20:32:33;;;;;;;;;;;13.70;99.90;;;;;;8427270;28;19912;-68
2021/08/08 20:36:34;;;;;;;;;;;13.80;99.90;;;;;;8427798;28;19967;-68
2021/08/08 20:40:34;;;;;;;;;;;13.80;99.90;;;;;;8428292;28;19919;-68
2021/08/08 20:44:35;;;;;;;;;;;13.50;99.90;;;;;;8447012;28;19916;-68
2021/08/08 20:48:35;;;;;;;;;;;13.30;99.90;;;;;;8446805;28;19912;-68
2021/08/08 20:52:36;;;;;;;;;;;13.20;99.90;;;;;;8447539;27;19912;-68
2021/08/08 20:56:36;;;;;;;;;;;13.10;99.90;;;;;;8446701;28;19912;-68
2021/08/08 21:00:37;;;;;;;;;;;13.00;99.90;;;;;;8446620;28;19923;-68
2021/08/08 21:04:37;;;;;;;;;;;13.00;99.90;;;;;;8442671;28;19912;-68
2021/08/08 21:08:38;;;;;;;;;;;12.80;99.90;;;;;;8441137;28;19927;-67
2021/08/08 21:12:38;;;;;;;;;;;12.70;99.90;;;;;;8436877;28;19908;-67
2021/08/08 21:16:39;;;;;;;;;;;12.90;99.90;;;;;;8438766;28;19908;-68
2021/08/08 21:20:40;;;;;;;;;;;12.70;99.90;;;;;;8445978;27;19919;-67
2021/08/08 21:24:40;;;;;;;;;;;12.80;99.90;;;;;;8450478;27;20680;-68
2021/08/08 21:28:41;;;;;;;;;;;12.70;99.90;;;;;;8446341;28;19920;-68
2021/08/08 21:32:41;;;;;;;;;;;12.50;99.90;;;;;;8461203;27;19908;-68
2021/08/08 21:36:42;;;;;;;;;;;12.40;99.90;;;;;;8461098;28;19908;-67
2021/08/08 21:40:42;;;;;;;;;;;12.20;99.90;;;;;;8462403;28;19918;-68
2021/08/08 21:44:44;;;;;;;;;;;12.50;99.90;;;;;;8462502;28;19931;-67
2021/08/08 21:48:45;;;;;;;;;;;12.50;99.90;;;;;;8463073;28;19915;-67
2021/08/08 21:52:45;;;;;;;;;;;12.30;99.90;;;;;;8438089;28;20000;-67
2021/08/08 21:56:46;;;;;;;;;;;12.20;99.90;;;;;;8429062;28;19915;-67
2021/08/08 22:00:46;;;;;;;;;;;12.40;99.90;;;;;;8429090;28;19951;-68
2021/08/08 22:04:47;;;;;;;;;;;12.40;99.90;;;;;;8429264;28;20008;-67
2021/08/08 22:08:47;;;;;;;;;;;12.70;99.90;;;;;;8428783;28;19915;-67
2021/08/08 22:12:48;;;;;;;;;;;12.70;99.90;;;;;;8429005;28;19912;-67
2021/08/08 22:16:49;;;;;;;;;;;12.70;99.90;;;;;;8428390;28;19919;-68
2021/08/08 22:20:49;;;;;;;;;;;12.60;99.90;;;;;;8428613;28;19966;-68
2021/08/08 22:24:53;;;;;;;;;;;12.40;99.90;;;;;;8428224;28;19908;-68
2021/08/08 22:28:54;;;;;;;;;;;12.30;99.90;;;;;;8428157;28;20415;-67
2021/08/08 22:32:55;;;;;;;;;;;12.20;99.90;;;;;;8428277;28;19915;-68
2021/08/08 22:36:55;;;;;;;;;;;12.10;99.90;;;;;;8427658;28;19909;-67
2021/08/08 22:40:55;;;;;;;;;;;12.00;99.90;;;;;;8427794;28;19919;-68
2021/08/08 22:44:56;;;;;;;;;;;11.90;99.90;;;;;;8426950;28;19908;-67
2021/08/08 22:48:56;;;;;;;;;;;12.00;99.90;;;;;;8426907;28;19908;-67
2021/08/08 22:52:57;;;;;;;;;;;12.10;99.90;;;;;;8428103;28;19915;-68
2021/08/08 22:56:57;;;;;;;;;;;12.10;99.90;;;;;;8425937;28;19916;-68
2021/08/08 23:00:58;;;;;;;;;;;12.10;99.90;;;;;;8426360;28;19916;-68
2021/08/08 23:04:58;;;;;;;;;;;11.90;99.90;;;;;;8426958;28;19915;-68
2021/08/08 23:08:59;;;;;;;;;;;11.90;99.90;;;;;;8426709;28;20414;-67
2021/08/08 23:12:59;;;;;;;;;;;11.80;99.90;;;;;;8426519;28;19908;-68
2021/08/08 23:17:01;;;;;;;;;;;11.90;99.90;;;;;;8426356;28;19911;-68
2021/08/08 23:21:02;;;;;;;;;;;11.90;99.90;;;;;;8428441;28;19928;-67
2021/08/08 23:25:03;;;;;;;;;;;12.20;99.90;;;;;;8426845;28;19916;-68
2021/08/08 23:29:03;;;;;;;;;;;12.20;99.90;;;;;;8426483;28;19912;-68